Time;durP1;ratioP1;P1;durP2;ratioP2;P2;SDS_P1;SDS_P2;PMS_P1;PMS_P2;Temp;Humidity;BMP_temperature;BMP_pressure;BME280_temperature;BME280_humidity;BME280_pressure;Samples;Min_cycle;Max_cycle;Signal;HPM_P1;HPM_P2
2021/08/03 00:01:00;;;;;;;15.63;13.68;;;14.70;89.60;;;;;;5073312;28;20032;-80
2021/08/03 00:03:35;;;;;;;20.30;14.23;;;14.80;89.60;;;;;;5073549;28;20423;-80
2021/08/03 00:06:12;;;;;;;15.50;13.82;;;14.70;89.70;;;;;;5072980;28;20020;-80
2021/08/03 00:08:52;;;;;;;18.67;15.30;;;14.70;89.80;;;;;;5065795;28;20108;-80
2021/08/03 00:11:19;;;;;;;17.58;13.93;;;14.70;90.00;;;;;;5072312;28;20059;-80
2021/08/03 00:13:45;;;;;;;19.10;13.63;;;14.70;90.00;;;;;;5072612;28;20869;-80
2021/08/03 00:16:12;;;;;;;15.88;14.23;;;14.70;90.20;;;;;;5071742;28;20110;-80
2021/08/03 00:18:40;;;;;;;18.85;13.57;;;14.70;89.90;;;;;;5073362;28;20020;-80
2021/08/03 00:21:08;;;;;;;15.60;13.95;;;14.70;89.90;;;;;;5071995;28;20036;-80
2021/08/03 00:23:36;;;;;;;14.68;12.95;;;14.60;89.90;;;;;;5071968;28;20058;-80
2021/08/03 00:26:02;;;;;;;16.25;13.88;;;14.60;90.00;;;;;;5073202;28;20090;-80
2021/08/03 00:28:28;;;;;;;15.50;13.02;;;14.60;90.00;;;;;;5073175;28;20477;-80
2021/08/03 00:30:53;;;;;;;18.08;14.13;;;14.60;90.10;;;;;;5088942;28;20075;-80
2021/08/03 00:33:19;;;;;;;17.80;13.00;;;14.60;90.10;;;;;;5055185;28;20025;-80
2021/08/03 00:35:50;;;;;;;17.88;14.38;;;14.60;90.20;;;;;;5073311;28;20440;-80
2021/08/03 00:38:16;;;;;;;15.68;13.63;;;14.60;90.20;;;;;;5073267;28;20389;-80
2021/08/03 00:40:52;;;;;;;15.30;13.63;;;14.60;90.20;;;;;;5071809;28;20037;-80
2021/08/03 00:43:18;;;;;;;14.85;12.57;;;14.60;90.20;;;;;;5073624;28;20542;-80
2021/08/03 00:45:44;;;;;;;15.20;13.65;;;14.60;90.20;;;;;;5077226;28;20032;-80
2021/08/03 00:48:09;;;;;;;20.02;14.93;;;14.60;90.20;;;;;;5059224;28;20025;-80
2021/08/03 00:50:36;;;;;;;17.17;15.45;;;14.60;90.10;;;;;;5075653;28;20028;-77
2021/08/03 00:53:04;;;;;;;17.52;15.10;;;14.60;90.20;;;;;;5074471;28;20392;-77
2021/08/03 00:55:29;;;;;;;18.83;15.55;;;14.60;90.30;;;;;;5075670;28;20103;-77
2021/08/03 00:57:55;;;;;;;15.90;12.93;;;14.60;90.30;;;;;;5075900;28;20154;-77
2021/08/03 01:00:21;;;;;;;17.05;15.25;;;14.50;90.30;;;;;;5075944;28;20036;-77
2021/08/03 01:02:47;;;;;;;19.58;14.43;;;14.50;90.40;;;;;;5064321;28;20040;-77
2021/08/03 01:05:13;;;;;;;16.42;14.23;;;14.50;90.40;;;;;;5074875;28;20554;-77
2021/08/03 01:07:49;;;;;;;18.48;14.63;;;14.60;90.50;;;;;;5071007;28;20049;-77
2021/08/03 01:10:32;;;;;;;24.38;14.73;;;14.60;90.50;;;;;;5055677;28;20040;-77
2021/08/03 01:13:19;;;;;;;18.45;16.55;;;14.60;90.60;;;;;;5075210;28;20025;-77
2021/08/03 01:15:51;;;;;;;16.10;13.55;;;14.60;90.60;;;;;;5075497;28;20025;-77
2021/08/03 01:18:35;;;;;;;16.00;13.27;;;14.50;90.50;;;;;;5065557;28;20127;-76
2021/08/03 01:21:26;;;;;;;14.93;13.23;;;14.60;90.60;;;;;;5075827;28;20475;-82
2021/08/03 01:24:15;;;;;;;18.08;13.93;;;14.60;90.60;;;;;;5076403;28;20379;-81
2021/08/03 01:26:50;;;;;;;17.80;14.30;;;14.60;90.60;;;;;;5076146;28;20053;-81
2021/08/03 01:29:20;;;;;;;16.52;14.23;;;14.60;90.60;;;;;;5091956;28;20016;-81
2021/08/03 01:31:48;;;;;;;19.48;15.45;;;14.60;90.50;;;;;;5076263;28;20425;-81
2021/08/03 01:34:17;;;;;;;20.63;15.63;;;14.60;90.60;;;;;;5076164;28;20021;-81
2021/08/03 01:36:49;;;;;;;17.73;14.35;;;14.60;90.60;;;;;;5076161;28;20025;-82
2021/08/03 01:39:19;;;;;;;13.90;12.50;;;14.60;90.70;;;;;;5076025;28;20040;-81
2021/08/03 01:41:48;;;;;;;16.27;13.50;;;14.60;90.70;;;;;;5076018;28;20439;-80
2021/08/03 01:44:15;;;;;;;18.20;13.15;;;14.60;90.70;;;;;;5075825;28;20025;-81
2021/08/03 01:46:42;;;;;;;14.00;12.55;;;14.60;90.60;;;;;;5075924;28;20062;-81
2021/08/03 01:49:11;;;;;;;15.18;12.27;;;14.70;90.70;;;;;;5074835;28;20024;-81
2021/08/03 01:51:37;;;;;;;14.02;12.43;;;14.70;90.80;;;;;;5075361;28;20016;-74
2021/08/03 01:54:04;;;;;;;16.27;13.48;;;14.70;90.70;;;;;;5073045;28;20040;-74
2021/08/03 01:56:30;;;;;;;18.70;14.50;;;14.70;90.70;;;;;;5072806;28;20481;-74
2021/08/03 01:58:58;;;;;;;19.02;12.40;;;14.70;90.60;;;;;;5074008;28;20507;-74
2021/08/03 02:01:25;;;;;;;17.23;14.70;;;14.70;90.70;;;;;;5074710;28;20469;-74
2021/08/03 02:03:51;;;;;;;17.20;15.35;;;14.70;90.70;;;;;;5074343;28;20032;-74
2021/08/03 02:06:18;;;;;;;13.35;11.98;;;14.60;90.80;;;;;;5073882;28;20497;-74
2021/08/03 02:08:45;;;;;;;12.98;11.52;;;14.70;90.80;;;;;;5074529;28;20070;-74
2021/08/03 02:11:11;;;;;;;14.68;13.10;;;14.70;90.80;;;;;;5072170;28;20025;-74
2021/08/03 02:13:36;;;;;;;17.15;12.93;;;14.70;90.80;;;;;;5060928;28;20036;-74
2021/08/03 02:16:03;;;;;;;16.92;13.45;;;14.70;90.80;;;;;;5061255;28;20032;-74
2021/08/03 02:18:28;;;;;;;18.02;13.80;;;14.70;90.80;;;;;;5073125;28;20064;-74
2021/08/03 02:20:54;;;;;;;23.50;14.35;;;14.70;90.80;;;;;;5073126;28;20118;-74
2021/08/03 02:23:20;;;;;;;15.27;12.75;;;14.70;90.80;;;;;;5074331;28;20499;-74
2021/08/03 02:25:46;;;;;;;15.82;13.40;;;14.60;90.80;;;;;;5073882;28;20489;-74
2021/08/03 02:28:12;;;;;;;16.33;14.48;;;14.60;90.90;;;;;;5066464;28;20029;-74
2021/08/03 02:30:38;;;;;;;18.35;12.75;;;14.60;90.90;;;;;;5049233;28;20539;-74
2021/08/03 02:33:09;;;;;;;19.70;16.13;;;14.60;90.90;;;;;;5074059;28;20024;-74
2021/08/03 02:35:47;;;;;;;16.33;12.55;;;14.60;90.90;;;;;;5072374;28;20029;-74
2021/08/03 02:38:22;;;;;;;16.83;14.45;;;14.60;91.10;;;;;;5074041;28;20024;-74
2021/08/03 02:40:49;;;;;;;15.25;13.57;;;14.60;91.10;;;;;;5072403;28;20029;-74
2021/08/03 02:43:18;;;;;;;16.42;12.10;;;14.60;91.10;;;;;;5089643;28;20025;-74
2021/08/03 02:45:45;;;;;;;14.13;11.40;;;14.60;91.10;;;;;;5061976;28;20032;-74
2021/08/03 02:48:14;;;;;;;16.48;12.65;;;14.70;91.10;;;;;;5057385;28;20092;-74
2021/08/03 02:50:42;;;;;;;;;;;14.70;91.10;;;;;;5058448;28;20025;-74
2021/08/03 02:53:15;;;;;;;16.70;12.65;;;14.70;90.90;;;;;;5062927;28;19912;-74
2021/08/03 02:55:57;;;;;;;17.08;12.20;;;14.70;91.00;;;;;;5073383;28;20028;-75
2021/08/03 02:58:36;;;;;;;13.50;12.00;;;14.80;91.00;;;;;;5073644;28;20025;-74
2021/08/03 03:01:03;;;;;;;14.52;11.93;;;14.80;90.90;;;;;;5066447;28;20074;-74
2021/08/03 03:03:32;;;;;;;16.17;11.15;;;14.70;90.70;;;;;;5073183;28;20043;-74
2021/08/03 03:06:03;;;;;;;14.80;11.80;;;14.70;90.70;;;;;;5072357;28;20377;-74
2021/08/03 03:08:30;;;;;;;15.00;11.55;;;14.70;90.70;;;;;;5073419;28;20020;-74
2021/08/03 03:11:00;;;;;;;16.65;12.35;;;14.70;90.70;;;;;;5071706;28;20111;-74
2021/08/03 03:13:32;;;;;;;16.23;10.70;;;14.70;90.70;;;;;;5072511;28;20536;-74
2021/08/03 03:16:00;;;;;;;16.85;12.18;;;14.70;90.80;;;;;;5072738;28;20021;-74
2021/08/03 03:18:25;;;;;;;14.60;12.25;;;14.70;90.80;;;;;;5071904;28;20485;-74
2021/08/03 03:20:52;;;;;;;16.75;13.50;;;14.70;90.90;;;;;;5069742;28;20036;-74
2021/08/03 03:23:20;;;;;;;16.50;11.43;;;14.70;90.90;;;;;;5055332;28;20036;-74
2021/08/03 03:25:52;;;;;;;16.50;11.40;;;14.70;91.00;;;;;;5069457;28;20465;-74
2021/08/03 03:28:24;;;;;;;13.48;11.48;;;14.70;91.00;;;;;;5071834;28;20036;-74
2021/08/03 03:30:51;;;;;;;15.82;11.82;;;14.70;90.90;;;;;;5072205;28;20081;-74
2021/08/03 03:33:18;;;;;;;14.27;12.45;;;14.70;90.90;;;;;;5064973;28;20599;-74
2021/08/03 03:35:47;;;;;;;17.48;11.13;;;14.70;90.90;;;;;;5064014;28;20032;-74
2021/08/03 03:38:17;;;;;;;12.25;10.27;;;14.70;91.00;;;;;;5071721;28;20039;-74
2021/08/03 03:40:47;;;;;;;15.63;11.20;;;14.70;90.90;;;;;;5063698;28;20043;-74
2021/08/03 03:43:14;;;;;;;12.43;11.13;;;14.70;90.90;;;;;;5073348;28;20107;-81
2021/08/03 03:45:46;;;;;;;12.95;10.30;;;14.70;90.80;;;;;;5073644;28;20029;-81
2021/08/03 03:48:16;;;;;;;11.80;9.98;;;14.70;90.80;;;;;;5072832;28;20488;-75
2021/08/03 03:51:09;;;;;;;14.57;11.07;;;14.70;90.90;;;;;;5072538;28;20416;-74
2021/08/03 03:53:46;;;;;;;13.30;10.93;;;14.60;91.00;;;;;;5070207;28;20105;-74
2021/08/03 03:56:15;;;;;;;12.05;10.80;;;14.60;91.10;;;;;;5068503;28;20025;-74
2021/08/03 03:58:45;;;;;;;14.90;12.75;;;14.60;91.10;;;;;;5072643;28;20037;-74
2021/08/03 04:01:15;;;;;;;11.55;10.35;;;14.60;91.10;;;;;;5071118;28;20025;-74
2021/08/03 04:03:42;;;;;;;16.92;12.02;;;14.60;91.20;;;;;;5070783;28;20036;-74
2021/08/03 04:06:08;;;;;;;17.63;11.20;;;14.60;91.20;;;;;;5072092;28;20484;-74
2021/08/03 04:08:38;;;;;;;14.63;11.80;;;14.60;91.50;;;;;;5071224;28;20123;-74
2021/08/03 04:11:04;;;;;;;13.85;11.40;;;14.50;91.30;;;;;;5072424;28;20035;-74
2021/08/03 04:13:30;;;;;;;17.75;11.80;;;14.50;91.30;;;;;;5070472;28;20032;-74
2021/08/03 04:15:56;;;;;;;13.00;10.82;;;14.50;91.30;;;;;;5071507;28;20041;-74
2021/08/03 04:18:22;;;;;;;14.68;11.80;;;14.50;91.30;;;;;;5072310;28;20032;-74
2021/08/03 04:20:47;;;;;;;11.52;10.02;;;14.50;91.30;;;;;;5071642;28;20097;-74
2021/08/03 04:23:13;;;;;;;14.82;12.50;;;14.50;91.30;;;;;;5070834;28;20033;-74
2021/08/03 04:25:41;;;;;;;20.35;11.70;;;14.40;91.30;;;;;;5071972;28;20033;-74
2021/08/03 04:28:08;;;;;;;15.60;13.00;;;14.50;91.40;;;;;;5071359;28;20515;-74
2021/08/03 04:30:34;;;;;;;14.10;10.48;;;14.40;91.30;;;;;;5065604;28;20493;-74
2021/08/03 04:33:00;;;;;;;13.10;11.80;;;14.50;91.40;;;;;;5069659;28;20033;-74
2021/08/03 04:35:26;;;;;;;16.00;10.73;;;14.50;91.80;;;;;;5070579;28;20037;-77
2021/08/03 04:37:51;;;;;;;15.75;11.18;;;14.50;91.50;;;;;;5071713;28;20436;-77
2021/08/03 04:40:19;;;;;;;18.33;12.68;;;14.60;91.40;;;;;;5070402;28;20047;-77
2021/08/03 04:42:44;;;;;;;14.02;10.77;;;14.60;91.40;;;;;;5072476;28;20056;-80
2021/08/03 04:45:10;;;;;;;13.02;10.95;;;14.60;91.40;;;;;;5071989;28;20440;-80
2021/08/03 04:47:48;;;;;;;15.43;11.48;;;14.60;91.50;;;;;;5071912;28;20503;-80
2021/08/03 04:50:17;;;;;;;15.77;14.10;;;14.60;91.50;;;;;;5071684;28;20496;-80
2021/08/03 04:52:43;;;;;;;13.57;11.52;;;14.50;91.60;;;;;;5073245;28;20030;-80
2021/08/03 04:55:09;;;;;;;25.13;15.65;;;14.50;91.60;;;;;;5071920;28;20435;-80
2021/08/03 04:57:35;;;;;;;15.65;11.85;;;14.60;91.70;;;;;;5073018;28;20025;-80
2021/08/03 05:00:02;;;;;;;16.77;14.45;;;14.50;91.80;;;;;;5072946;28;20543;-80
2021/08/03 05:02:27;;;;;;;25.73;16.30;;;14.60;91.80;;;;;;5072871;28;20063;-80
2021/08/03 05:04:53;;;;;;;18.55;13.40;;;14.60;91.80;;;;;;5071332;28;20056;-80
2021/08/03 05:07:18;;;;;;;17.75;15.43;;;14.60;91.80;;;;;;5064049;28;20404;-81
2021/08/03 05:09:44;;;;;;;20.52;15.48;;;14.60;91.90;;;;;;5052721;28;20037;-80
2021/08/03 05:12:10;;;;;;;20.67;15.45;;;14.60;91.90;;;;;;5064396;28;20025;-81
2021/08/03 05:14:36;;;;;;;16.60;14.82;;;14.60;92.00;;;;;;5052741;28;20098;-80
2021/08/03 05:17:01;;;;;;;18.98;14.73;;;14.70;91.90;;;;;;5052621;28;20036;-81
2021/08/03 05:19:27;;;;;;;16.98;15.20;;;14.70;91.90;;;;;;5062171;28;20028;-82
2021/08/03 05:21:52;;;;;;;18.90;14.50;;;14.70;91.90;;;;;;5054817;28;20480;-81
2021/08/03 05:24:25;;;;;;;16.50;14.90;;;14.70;91.80;;;;;;5071321;28;20033;-81
2021/08/03 05:26:54;;;;;;;15.45;13.75;;;14.80;91.80;;;;;;5072442;28;20052;-81
2021/08/03 05:29:19;;;;;;;18.10;13.82;;;14.80;91.80;;;;;;5071988;28;20044;-81
2021/08/03 05:31:45;;;;;;;21.08;14.90;;;14.80;91.80;;;;;;5076169;28;20466;-81
2021/08/03 05:34:10;;;;;;;23.73;16.10;;;14.80;91.80;;;;;;5076306;28;20056;-80
2021/08/03 05:36:36;;;;;;;18.38;16.27;;;14.80;91.90;;;;;;5076090;28;20032;-81
2021/08/03 05:39:02;;;;;;;19.05;14.43;;;14.80;91.90;;;;;;5076304;28;20086;-81
2021/08/03 05:41:28;;;;;;;18.77;15.85;;;14.90;91.90;;;;;;5076260;28;20465;-80
2021/08/03 05:43:53;;;;;;;17.42;14.30;;;14.90;91.90;;;;;;5060051;28;20041;-80
2021/08/03 05:46:19;;;;;;;16.48;14.05;;;14.90;91.90;;;;;;5054657;28;20085;-80
2021/08/03 05:48:45;;;;;;;21.92;14.23;;;14.90;91.90;;;;;;5055624;28;20056;-81
2021/08/03 05:51:10;;;;;;;16.58;14.70;;;15.00;92.00;;;;;;5055864;28;20025;-80
2021/08/03 05:53:36;;;;;;;19.35;15.48;;;15.00;92.00;;;;;;5055862;28;20033;-80
2021/08/03 05:56:01;;;;;;;19.67;15.10;;;15.10;91.90;;;;;;5055791;28;20068;-80
2021/08/03 05:58:27;;;;;;;20.50;15.10;;;15.10;91.80;;;;;;5070400;28;20029;-77
2021/08/03 06:00:53;;;;;;;19.10;14.05;;;15.20;91.80;;;;;;5063617;28;20493;-77
2021/08/03 06:03:18;;;;;;;20.38;16.42;;;15.20;91.80;;;;;;5073632;28;20028;-77
2021/08/03 06:05:44;;;;;;;22.25;15.68;;;15.20;91.70;;;;;;5056391;28;20040;-76
2021/08/03 06:08:11;;;;;;;15.05;12.90;;;15.20;92.00;;;;;;5073497;28;20124;-80
2021/08/03 06:10:38;;;;;;;19.67;14.07;;;15.30;91.80;;;;;;5067724;28;20166;-73
2021/08/03 06:13:06;;;;;;;16.60;14.55;;;15.30;91.80;;;;;;5069233;28;20032;-73
2021/08/03 06:15:38;;;;;;;21.02;16.73;;;15.30;91.90;;;;;;5069112;28;20453;-73
2021/08/03 06:18:12;;;;;;;21.30;16.50;;;15.40;91.90;;;;;;5070864;28;20028;-73
2021/08/03 06:20:40;;;;;;;19.45;14.90;;;15.40;91.80;;;;;;5069961;28;20406;-74
2021/08/03 06:23:06;;;;;;;18.98;15.32;;;15.50;91.80;;;;;;5071487;28;20465;-74
2021/08/03 06:25:33;;;;;;;20.83;15.88;;;15.50;91.70;;;;;;5069319;28;20031;-73
2021/08/03 06:28:00;;;;;;;18.05;15.45;;;15.60;91.90;;;;;;5070006;28;20120;-73
2021/08/03 06:30:26;;;;;;;18.10;14.27;;;15.70;91.50;;;;;;5070024;28;20066;-73
2021/08/03 06:32:53;;;;;;;21.05;15.55;;;15.70;91.40;;;;;;5070469;28;20411;-73
2021/08/03 06:35:20;;;;;;;23.33;15.50;;;15.80;91.40;;;;;;5070178;28;20086;-73
2021/08/03 06:37:46;;;;;;;19.70;15.23;;;15.90;91.40;;;;;;5072768;28;20485;-73
2021/08/03 06:40:12;;;;;;;19.55;13.77;;;15.90;91.30;;;;;;5073862;28;20082;-74
2021/08/03 06:43:01;;;;;;;22.38;15.38;;;16.00;91.20;;;;;;5071459;28;20033;-73
2021/08/03 06:45:32;;;;;;;25.77;17.08;;;16.00;91.20;;;;;;5073815;28;20089;-73
2021/08/03 06:48:11;;;;;;;22.58;15.48;;;16.10;91.20;;;;;;5073597;28;20067;-73
2021/08/03 06:51:00;;;;;;;22.60;15.82;;;16.00;91.20;;;;;;5075527;28;20540;-73
2021/08/03 06:53:28;;;;;;;19.23;14.18;;;16.10;91.20;;;;;;5064073;28;20056;-73
2021/08/03 06:55:57;;;;;;;21.20;16.15;;;16.00;91.20;;;;;;5073195;28;20059;-73
2021/08/03 06:59:04;;;;;;;26.98;17.90;;;16.10;91.30;;;;;;5055402;28;20033;-73
2021/08/03 07:01:52;;;;;;;23.42;17.25;;;16.00;91.40;;;;;;5072050;28;20040;-73
2021/08/03 07:04:19;;;;;;;;;;;16.00;91.50;;;;;;5072906;28;20047;-73
2021/08/03 07:06:52;;;;;;;23.05;16.40;;;16.00;91.40;;;;;;5072442;28;19924;-73
2021/08/03 07:09:18;;;;;;;22.83;18.90;;;16.10;91.50;;;;;;5073045;28;20033;-73
2021/08/03 07:11:43;;;;;;;29.23;19.88;;;16.10;91.40;;;;;;5073118;28;20035;-73
2021/08/03 07:14:09;;;;;;;22.10;16.25;;;16.20;91.30;;;;;;5072144;28;20478;-73
2021/08/03 07:16:38;;;;;;;23.30;18.58;;;16.30;91.30;;;;;;5073024;28;20040;-72
2021/08/03 07:19:05;;;;;;;26.35;18.55;;;16.40;91.30;;;;;;5071649;28;20046;-73
2021/08/03 07:21:31;;;;;;;23.77;19.65;;;16.40;91.30;;;;;;5071301;28;20370;-73
2021/08/03 07:23:57;;;;;;;27.60;20.20;;;16.40;91.20;;;;;;5072902;28;20052;-73
2021/08/03 07:26:24;;;;;;;25.20;19.85;;;16.50;91.10;;;;;;5068337;28;20115;-73
2021/08/03 07:28:50;;;;;;;28.58;20.27;;;16.60;91.10;;;;;;5066937;28;20017;-72
2021/08/03 07:31:16;;;;;;;24.58;18.13;;;16.60;91.00;;;;;;5071074;28;20439;-73
2021/08/03 07:33:42;;;;;;;24.83;20.17;;;16.70;90.90;;;;;;5072491;28;20075;-73
2021/08/03 07:36:07;;;;;;;23.20;19.95;;;16.70;90.90;;;;;;5070927;28;20029;-73
2021/08/03 07:38:33;;;;;;;28.77;20.95;;;16.80;90.90;;;;;;5087653;28;20081;-73
2021/08/03 07:40:59;;;;;;;24.27;19.58;;;16.80;90.90;;;;;;5088185;28;20040;-73
2021/08/03 07:43:24;;;;;;;26.35;21.65;;;16.90;90.90;;;;;;5071909;28;20051;-73
2021/08/03 07:45:50;;;;;;;25.40;17.52;;;16.90;90.90;;;;;;5071091;28;20101;-73
2021/08/03 07:48:16;;;;;;;23.73;20.00;;;16.90;90.90;;;;;;5083650;28;20081;-72
2021/08/03 07:50:41;;;;;;;27.13;19.48;;;17.00;90.80;;;;;;5072427;28;20025;-72
2021/08/03 07:53:07;;;;;;;36.92;21.08;;;17.00;90.70;;;;;;5081391;28;20029;-72
2021/08/03 07:55:33;;;;;;;25.20;19.67;;;17.00;90.60;;;;;;5070781;28;20032;-72
2021/08/03 07:57:59;;;;;;;25.45;21.17;;;17.00;90.50;;;;;;5071123;28;20037;-72
2021/08/03 08:00:25;;;;;;;27.65;21.58;;;17.00;90.60;;;;;;5071361;28;20078;-72
2021/08/03 08:02:50;;;;;;;31.77;22.30;;;17.00;90.60;;;;;;5072210;28;20366;-72
2021/08/03 08:05:16;;;;;;;25.77;20.13;;;17.00;90.70;;;;;;5053424;28;20037;-72
2021/08/03 08:07:42;;;;;;;29.80;20.08;;;17.00;90.70;;;;;;5072347;28;20073;-72
2021/08/03 08:10:08;;;;;;;24.45;19.40;;;17.00;90.50;;;;;;5072365;28;20103;-72
2021/08/03 08:12:34;;;;;;;30.90;19.40;;;17.10;90.30;;;;;;5070848;28;20037;-72
2021/08/03 08:14:59;;;;;;;23.08;18.33;;;17.10;90.30;;;;;;5070212;28;20451;-71
2021/08/03 08:17:25;;;;;;;24.13;18.23;;;17.10;90.20;;;;;;5072099;28;20029;-72
2021/08/03 08:19:51;;;;;;;23.35;18.88;;;17.20;90.10;;;;;;5070318;28;20120;-72
2021/08/03 08:22:16;;;;;;;27.05;19.10;;;17.20;90.10;;;;;;5071014;28;20024;-72
2021/08/03 08:24:42;;;;;;;21.98;18.65;;;17.20;90.20;;;;;;5071779;28;20055;-73
2021/08/03 08:27:08;;;;;;;20.02;16.98;;;17.20;90.10;;;;;;5072246;28;20048;-73
2021/08/03 08:29:33;;;;;;;22.95;19.70;;;17.10;89.80;;;;;;5073287;28;20548;-79
2021/08/03 08:31:59;;;;;;;28.25;20.77;;;17.10;90.00;;;;;;5073627;28;20032;-79
2021/08/03 08:34:24;;;;;;;26.30;22.02;;;17.10;90.00;;;;;;5073391;28;20033;-78
2021/08/03 08:36:51;;;;;;;26.38;19.65;;;17.10;90.10;;;;;;5073239;28;20056;-78
2021/08/03 08:39:17;;;;;;;20.52;18.23;;;17.20;90.20;;;;;;5073267;28;20497;-78
2021/08/03 08:41:44;;;;;;;22.98;19.83;;;17.20;90.20;;;;;;5072892;28;20127;-78
2021/08/03 08:44:10;;;;;;;23.55;18.35;;;17.30;90.10;;;;;;5073419;28;20485;-78
2021/08/03 08:46:37;;;;;;;20.15;17.08;;;17.30;90.00;;;;;;5073124;28;20071;-79
2021/08/03 08:49:05;;;;;;;21.83;17.75;;;17.30;89.60;;;;;;5073231;28;20016;-79
2021/08/03 08:51:31;;;;;;;25.20;18.45;;;17.30;89.30;;;;;;5067383;28;20473;-73
2021/08/03 08:53:58;;;;;;;22.98;18.02;;;17.20;89.60;;;;;;5053410;28;20033;-72
2021/08/03 08:56:24;;;;;;;27.33;21.38;;;17.20;90.00;;;;;;5067015;28;20053;-79
2021/08/03 08:58:49;;;;;;;22.30;18.63;;;17.20;90.20;;;;;;5053083;28;20056;-78
2021/08/03 09:01:15;;;;;;;21.58;16.42;;;17.20;90.60;;;;;;5053098;28;20120;-79
2021/08/03 09:03:41;;;;;;;23.20;18.75;;;17.30;90.30;;;;;;5052987;28;20079;-79
2021/08/03 09:06:07;;;;;;;23.38;18.25;;;17.30;90.10;;;;;;5056314;28;20049;-79
2021/08/03 09:08:43;;;;;;;23.67;18.83;;;17.30;90.00;;;;;;5056883;28;20044;-79
2021/08/03 09:11:14;;;;;;;25.90;18.80;;;17.30;90.10;;;;;;5057087;28;20068;-79
2021/08/03 09:13:57;;;;;;;25.33;18.30;;;17.30;90.20;;;;;;5056531;28;20100;-79
2021/08/03 09:16:41;;;;;;;24.05;16.67;;;17.30;90.30;;;;;;5055129;28;20449;-79
2021/08/03 09:19:07;;;;;;;19.80;15.98;;;17.30;90.00;;;;;;5056362;28;20094;-79
2021/08/03 09:21:32;;;;;;;19.27;16.45;;;17.30;89.90;;;;;;5058316;28;20480;-79
2021/08/03 09:24:00;;;;;;;21.33;15.95;;;17.40;90.00;;;;;;5076484;28;20041;-79
2021/08/03 09:26:41;;;;;;;18.93;15.00;;;17.40;90.10;;;;;;5075950;28;20473;-80
2021/08/03 09:29:12;;;;;;;20.30;15.73;;;17.40;89.80;;;;;;5075087;28;20075;-81
2021/08/03 09:31:40;;;;;;;19.67;16.38;;;17.40;89.70;;;;;;5076219;28;20042;-82
2021/08/03 09:34:17;;;;;;;21.83;15.77;;;17.40;89.50;;;;;;5076075;28;20115;-81
2021/08/03 09:36:50;;;;;;;19.73;16.80;;;17.40;89.90;;;;;;5058159;28;20041;-81
2021/08/03 09:39:38;;;;;;;20.88;16.20;;;17.40;90.00;;;;;;5055890;28;20035;-81
2021/08/03 09:42:30;;;;;;;18.63;14.95;;;17.40;89.80;;;;;;5055860;28;20028;-82
2021/08/03 09:44:58;;;;;;;24.13;16.75;;;17.40;89.80;;;;;;5053361;28;20143;-82
2021/08/03 09:47:25;;;;;;;22.08;15.27;;;17.40;89.90;;;;;;5054689;28;20490;-82
2021/08/03 09:49:55;;;;;;;19.52;15.07;;;17.30;90.00;;;;;;5055895;28;20033;-82
2021/08/03 09:52:23;;;;;;;21.13;15.43;;;17.30;90.20;;;;;;5055905;28;20530;-81
2021/08/03 09:54:49;;;;;;;19.70;15.93;;;17.30;90.30;;;;;;5055759;28;20029;-82
2021/08/03 09:57:25;;;;;;;20.42;15.75;;;17.40;90.20;;;;;;5055512;28;20054;-81
2021/08/03 09:59:53;;;;;;;21.02;15.73;;;17.30;90.00;;;;;;5069068;28;20035;-74
2021/08/03 10:02:23;;;;;;;17.63;13.48;;;17.30;90.10;;;;;;5074145;28;20043;-75
2021/08/03 10:04:50;;;;;;;22.40;16.90;;;17.30;90.10;;;;;;5075032;28;20115;-74
2021/08/03 10:07:16;;;;;;;23.98;17.27;;;17.40;90.20;;;;;;5065771;28;20139;-75
2021/08/03 10:09:43;;;;;;;19.27;15.45;;;17.40;90.30;;;;;;5074829;28;20044;-75
2021/08/03 10:12:10;;;;;;;18.42;16.10;;;17.40;90.30;;;;;;5073622;28;20025;-83
2021/08/03 10:14:36;;;;;;;20.67;16.85;;;17.40;90.20;;;;;;5057601;28;20033;-83
2021/08/03 10:17:02;;;;;;;21.33;16.65;;;17.40;90.20;;;;;;5075178;28;20077;-82
2021/08/03 10:19:33;;;;;;;18.98;16.15;;;17.40;90.10;;;;;;5074864;28;20032;-82
2021/08/03 10:22:25;;;;;;;20.05;14.98;;;17.40;90.10;;;;;;5074129;28;20111;-82
2021/08/03 10:24:55;;;;;;;18.02;15.73;;;17.40;90.10;;;;;;5073850;28;20043;-81
2021/08/03 10:27:21;;;;;;;19.23;16.20;;;17.50;90.20;;;;;;5075312;28;20151;-82
2021/08/03 10:29:52;;;;;;;20.95;15.68;;;17.50;90.10;;;;;;5075662;28;20890;-82
2021/08/03 10:32:40;;;;;;;20.63;16.02;;;17.50;90.10;;;;;;5075050;28;20104;-75
2021/08/03 10:35:15;;;;;;;18.23;16.17;;;17.60;90.00;;;;;;5074282;28;20040;-75
2021/08/03 10:37:59;;;;;;;16.33;14.52;;;17.60;89.80;;;;;;5062915;28;20059;-75
2021/08/03 10:40:48;;;;;;;22.58;13.90;;;17.60;89.50;;;;;;5055085;28;20028;-76
2021/08/03 10:43:16;;;;;;;21.92;16.48;;;17.60;89.60;;;;;;5064723;28;20477;-82
2021/08/03 10:45:42;;;;;;;19.05;14.95;;;17.60;89.40;;;;;;5074911;28;20033;-81
2021/08/03 10:48:07;;;;;;;17.17;14.00;;;17.60;88.80;;;;;;5073579;28;20496;-82
2021/08/03 10:50:33;;;;;;;19.80;15.13;;;17.60;88.70;;;;;;5074518;28;20033;-82
2021/08/03 10:53:03;;;;;;;22.65;15.05;;;17.60;88.70;;;;;;5072928;28;20448;-82
2021/08/03 10:55:39;;;;;;;19.42;14.90;;;17.70;88.50;;;;;;5074498;28;20032;-82
2021/08/03 10:58:10;;;;;;;20.42;15.13;;;17.70;88.10;;;;;;5074444;28;20465;-82
2021/08/03 11:00:57;;;;;;;17.75;13.23;;;17.70;88.00;;;;;;5074369;28;20033;-80
2021/08/03 11:03:44;;;;;;;18.38;14.18;;;17.70;88.30;;;;;;5074217;28;20027;-75
2021/08/03 11:06:09;;;;;;;17.10;14.45;;;17.90;88.50;;;;;;5070301;28;20178;-80
2021/08/03 11:08:41;;;;;;;16.17;13.95;;;17.90;88.00;;;;;;5073782;28;20103;-80
2021/08/03 11:11:28;;;;;;;17.52;15.10;;;17.90;87.00;;;;;;5073777;28;20492;-80
2021/08/03 11:14:06;;;;;;;19.42;15.05;;;17.90;87.00;;;;;;5073275;28;20032;-80
2021/08/03 11:16:32;;;;;;;20.63;16.48;;;17.90;86.90;;;;;;5072073;28;20120;-79
2021/08/03 11:19:03;;;;;;;20.02;16.25;;;17.90;86.10;;;;;;5058689;28;20061;-81
2021/08/03 11:21:48;;;;;;;18.95;15.38;;;17.90;85.30;;;;;;5063141;28;20115;-80
2021/08/03 11:24:16;;;;;;;17.52;13.73;;;17.90;86.30;;;;;;5073766;28;20102;-80
2021/08/03 11:26:54;;;;;;;23.33;16.67;;;18.00;86.60;;;;;;5072152;28;20036;-82
2021/08/03 11:29:22;;;;;;;19.85;15.68;;;18.10;86.40;;;;;;5074011;28;20729;-82
2021/08/03 11:31:58;;;;;;;21.98;15.65;;;18.20;85.90;;;;;;5074032;28;20534;-81
2021/08/03 11:34:24;;;;;;;21.83;15.77;;;18.30;85.60;;;;;;5073841;28;20060;-81
2021/08/03 11:36:59;;;;;;;22.02;15.02;;;18.40;85.60;;;;;;5072618;28;20090;-82
2021/08/03 11:39:31;;;;;;;20.75;14.82;;;18.50;86.00;;;;;;5073716;28;20028;-81
2021/08/03 11:41:57;;;;;;;17.75;13.55;;;18.70;85.80;;;;;;5073973;28;20024;-82
2021/08/03 11:44:23;;;;;;;18.27;14.57;;;18.90;84.90;;;;;;5061739;28;20036;-83
2021/08/03 11:46:57;;;;;;;22.08;14.18;;;19.10;84.20;;;;;;5073289;28;20492;-82
2021/08/03 11:49:47;;;;;;;18.60;13.38;;;19.20;83.40;;;;;;5054260;28;20048;-82
2021/08/03 11:52:20;;;;;;;17.02;14.10;;;19.40;81.60;;;;;;5059410;28;20032;-82
2021/08/03 11:54:48;;;;;;;18.00;13.95;;;19.50;80.40;;;;;;5070708;28;20094;-82
2021/08/03 11:57:24;;;;;;;15.65;13.43;;;19.50;80.60;;;;;;5073492;28;20358;-82
2021/08/03 12:00:01;;;;;;;16.70;12.90;;;19.50;80.60;;;;;;5073426;28;20028;-82
2021/08/03 12:02:27;;;;;;;19.52;13.63;;;19.40;79.00;;;;;;5073322;28;20056;-82
2021/08/03 12:05:05;;;;;;;16.88;12.32;;;19.30;78.10;;;;;;5072545;28;20154;-82
2021/08/03 12:07:31;;;;;;;15.75;13.13;;;19.20;78.40;;;;;;5073276;28;20099;-82
2021/08/03 12:09:56;;;;;;;20.42;13.77;;;19.00;79.80;;;;;;5067175;28;20104;-83
2021/08/03 12:12:22;;;;;;;19.23;13.02;;;19.00;79.80;;;;;;5066581;28;20028;-83
2021/08/03 12:14:48;;;;;;;19.15;12.25;;;19.00;79.50;;;;;;5063691;28;20104;-81
2021/08/03 12:17:26;;;;;;;15.07;12.50;;;18.90;80.30;;;;;;5071181;28;20482;-83
2021/08/03 12:19:52;;;;;;;17.83;12.75;;;18.90;81.00;;;;;;5071483;28;20484;-83
2021/08/03 12:22:25;;;;;;;16.33;12.40;;;18.90;80.50;;;;;;5064264;28;20034;-82
2021/08/03 12:24:59;;;;;;;17.70;11.85;;;18.90;80.20;;;;;;5057003;28;20017;-82
2021/08/03 12:27:25;;;;;;;17.85;10.80;;;19.00;79.00;;;;;;5051412;28;20473;-83
2021/08/03 12:29:50;;;;;;;15.65;11.65;;;18.90;79.00;;;;;;5053143;28;20052;-82
2021/08/03 12:32:39;;;;;;;18.00;11.88;;;18.90;77.70;;;;;;5053101;28;20052;-82
2021/08/03 12:35:14;;;;;;;15.25;11.25;;;18.90;76.90;;;;;;5061936;28;20025;-83
2021/08/03 12:37:40;;;;;;;18.00;11.73;;;18.90;78.80;;;;;;5073043;28;20027;-81
2021/08/03 12:40:33;;;;;;;20.35;12.32;;;18.90;79.60;;;;;;5074996;28;20012;-83